sensor_id;sensor_type;location;lat;lon;timestamp;P1;durP1;ratioP1;P2;durP2;ratioP2
20721;SDS011;10522;52.198;9.890;2023-04-08T00:00:00;7.20;;;5.33;;
20721;SDS011;10522;52.198;9.890;2023-04-08T00:02:26;9.37;;;5.33;;
20721;SDS011;10522;52.198;9.890;2023-04-08T00:04:51;8.27;;;5.17;;
20721;SDS011;10522;52.198;9.890;2023-04-08T00:07:17;6.97;;;5.03;;
20721;SDS011;10522;52.198;9.890;2023-04-08T00:09:43;8.17;;;5.20;;
20721;SDS011;10522;52.198;9.890;2023-04-08T00:12:08;7.17;;;5.07;;
20721;SDS011;10522;52.198;9.890;2023-04-08T00:14:34;9.90;;;5.60;;
20721;SDS011;10522;52.198;9.890;2023-04-08T00:16:59;7.37;;;4.77;;
20721;SDS011;10522;52.198;9.890;2023-04-08T00:19:25;7.10;;;4.87;;
20721;SDS011;10522;52.198;9.890;2023-04-08T00:21:50;11.20;;;5.23;;
20721;SDS011;10522;52.198;9.890;2023-04-08T00:24:17;8.33;;;5.57;;
20721;SDS011;10522;52.198;9.890;2023-04-08T00:26:43;9.57;;;4.77;;
20721;SDS011;10522;52.198;9.890;2023-04-08T00:29:08;6.87;;;5.23;;
20721;SDS011;10522;52.198;9.890;2023-04-08T00:31:34;9.27;;;5.90;;
20721;SDS011;10522;52.198;9.890;2023-04-08T00:34:00;7.27;;;5.20;;
20721;SDS011;10522;52.198;9.890;2023-04-08T00:36:26;8.00;;;4.93;;
20721;SDS011;10522;52.198;9.890;2023-04-08T00:38:52;8.43;;;5.37;;
20721;SDS011;10522;52.198;9.890;2023-04-08T00:41:17;9.07;;;5.10;;
20721;SDS011;10522;52.198;9.890;2023-04-08T00:43:43;7.87;;;5.17;;
20721;SDS011;10522;52.198;9.890;2023-04-08T00:46:09;8.07;;;4.80;;
20721;SDS011;10522;52.198;9.890;2023-04-08T00:48:35;7.53;;;5.10;;
20721;SDS011;10522;52.198;9.890;2023-04-08T00:51:01;7.97;;;5.43;;
20721;SDS011;10522;52.198;9.890;2023-04-08T00:53:27;7.83;;;5.63;;
20721;SDS011;10522;52.198;9.890;2023-04-08T00:55:55;7.80;;;4.87;;
20721;SDS011;10522;52.198;9.890;2023-04-08T00:58:21;8.70;;;5.90;;
20721;SDS011;10522;52.198;9.890;2023-04-08T01:00:49;8.20;;;5.70;;
20721;SDS011;10522;52.198;9.890;2023-04-08T01:03:41;10.07;;;5.60;;
20721;SDS011;10522;52.198;9.890;2023-04-08T01:06:31;9.90;;;5.93;;
20721;SDS011;10522;52.198;9.890;2023-04-08T01:09:14;9.67;;;5.77;;
20721;SDS011;10522;52.198;9.890;2023-04-08T01:11:44;7.83;;;6.17;;
20721;SDS011;10522;52.198;9.890;2023-04-08T01:14:16;10.17;;;6.37;;
20721;SDS011;10522;52.198;9.890;2023-04-08T01:16:45;8.97;;;6.27;;
20721;SDS011;10522;52.198;9.890;2023-04-08T01:19:14;9.03;;;5.40;;
20721;SDS011;10522;52.198;9.890;2023-04-08T01:21:48;9.80;;;6.33;;
20721;SDS011;10522;52.198;9.890;2023-04-08T01:24:48;12.07;;;6.13;;
20721;SDS011;10522;52.198;9.890;2023-04-08T01:27:07;9.20;;;5.93;;
20721;SDS011;10522;52.198;9.890;2023-04-08T01:29:35;9.63;;;6.17;;
20721;SDS011;10522;52.198;9.890;2023-04-08T01:32:01;9.70;;;6.63;;
20721;SDS011;10522;52.198;9.890;2023-04-08T01:34:28;16.47;;;6.70;;
20721;SDS011;10522;52.198;9.890;2023-04-08T01:36:55;9.53;;;5.87;;
20721;SDS011;10522;52.198;9.890;2023-04-08T01:39:22;10.13;;;6.93;;
20721;SDS011;10522;52.198;9.890;2023-04-08T01:41:49;10.57;;;6.77;;
20721;SDS011;10522;52.198;9.890;2023-04-08T01:44:18;12.33;;;7.60;;
20721;SDS011;10522;52.198;9.890;2023-04-08T01:46:45;11.70;;;6.53;;
20721;SDS011;10522;52.198;9.890;2023-04-08T01:49:13;9.70;;;6.30;;
20721;SDS011;10522;52.198;9.890;2023-04-08T01:51:42;12.07;;;7.10;;
20721;SDS011;10522;52.198;9.890;2023-04-08T01:54:10;9.67;;;5.90;;
20721;SDS011;10522;52.198;9.890;2023-04-08T01:56:36;10.80;;;6.20;;
20721;SDS011;10522;52.198;9.890;2023-04-08T01:59:05;9.87;;;6.87;;
20721;SDS011;10522;52.198;9.890;2023-04-08T02:01:35;10.40;;;6.33;;
20721;SDS011;10522;52.198;9.890;2023-04-08T02:04:02;9.93;;;6.60;;
20721;SDS011;10522;52.198;9.890;2023-04-08T02:06:28;9.87;;;6.10;;
20721;SDS011;10522;52.198;9.890;2023-04-08T02:08:55;8.17;;;5.73;;
20721;SDS011;10522;52.198;9.890;2023-04-08T02:11:21;10.77;;;7.03;;
20721;SDS011;10522;52.198;9.890;2023-04-08T02:13:46;12.10;;;7.07;;
20721;SDS011;10522;52.198;9.890;2023-04-08T02:16:22;13.00;;;7.43;;
20721;SDS011;10522;52.198;9.890;2023-04-08T02:18:58;11.60;;;7.60;;
20721;SDS011;10522;52.198;9.890;2023-04-08T02:21:35;13.17;;;7.50;;
20721;SDS011;10522;52.198;9.890;2023-04-08T02:24:07;11.10;;;7.60;;
20721;SDS011;10522;52.198;9.890;2023-04-08T02:26:35;16.63;;;7.70;;
20721;SDS011;10522;52.198;9.890;2023-04-08T02:29:02;9.67;;;6.27;;
20721;SDS011;10522;52.198;9.890;2023-04-08T02:31:30;13.53;;;8.00;;
20721;SDS011;10522;52.198;9.890;2023-04-08T02:33:57;10.70;;;7.00;;
20721;SDS011;10522;52.198;9.890;2023-04-08T02:36:24;12.83;;;7.60;;
20721;SDS011;10522;52.198;9.890;2023-04-08T02:38:50;11.17;;;7.07;;
20721;SDS011;10522;52.198;9.890;2023-04-08T02:41:16;11.17;;;7.23;;
20721;SDS011;10522;52.198;9.890;2023-04-08T02:43:42;10.60;;;6.87;;
20721;SDS011;10522;52.198;9.890;2023-04-08T02:46:07;11.70;;;7.33;;
20721;SDS011;10522;52.198;9.890;2023-04-08T02:48:35;10.50;;;6.97;;
20721;SDS011;10522;52.198;9.890;2023-04-08T02:51:01;12.03;;;6.60;;
20721;SDS011;10522;52.198;9.890;2023-04-08T02:53:26;12.97;;;7.57;;
20721;SDS011;10522;52.198;9.890;2023-04-08T02:55:52;10.17;;;6.53;;
20721;SDS011;10522;52.198;9.890;2023-04-08T02:58:18;11.97;;;7.93;;
20721;SDS011;10522;52.198;9.890;2023-04-08T03:00:43;12.43;;;7.37;;
20721;SDS011;10522;52.198;9.890;2023-04-08T03:03:09;13.07;;;7.40;;
20721;SDS011;10522;52.198;9.890;2023-04-08T03:05:35;10.17;;;7.07;;
20721;SDS011;10522;52.198;9.890;2023-04-08T03:08:00;8.33;;;6.70;;
20721;SDS011;10522;52.198;9.890;2023-04-08T03:10:26;10.43;;;6.97;;
20721;SDS011;10522;52.198;9.890;2023-04-08T03:12:51;11.53;;;7.13;;
20721;SDS011;10522;52.198;9.890;2023-04-08T03:15:17;11.47;;;6.80;;
20721;SDS011;10522;52.198;9.890;2023-04-08T03:17:43;12.57;;;7.33;;
20721;SDS011;10522;52.198;9.890;2023-04-08T03:20:09;10.37;;;7.03;;
20721;SDS011;10522;52.198;9.890;2023-04-08T03:22:35;11.53;;;7.47;;
20721;SDS011;10522;52.198;9.890;2023-04-08T03:25:00;14.37;;;7.40;;
20721;SDS011;10522;52.198;9.890;2023-04-08T03:27:26;12.73;;;7.40;;
20721;SDS011;10522;52.198;9.890;2023-04-08T03:29:52;11.30;;;6.97;;
20721;SDS011;10522;52.198;9.890;2023-04-08T03:32:18;11.00;;;6.93;;
20721;SDS011;10522;52.198;9.890;2023-04-08T03:34:43;12.17;;;6.63;;
20721;SDS011;10522;52.198;9.890;2023-04-08T03:37:09;11.83;;;6.70;;
20721;SDS011;10522;52.198;9.890;2023-04-08T03:39:35;11.30;;;7.03;;
20721;SDS011;10522;52.198;9.890;2023-04-08T03:42:01;12.03;;;6.87;;
20721;SDS011;10522;52.198;9.890;2023-04-08T03:44:27;12.27;;;7.10;;
20721;SDS011;10522;52.198;9.890;2023-04-08T03:46:52;15.47;;;7.67;;
20721;SDS011;10522;52.198;9.890;2023-04-08T03:49:18;14.30;;;7.43;;
20721;SDS011;10522;52.198;9.890;2023-04-08T03:51:44;15.57;;;7.57;;
20721;SDS011;10522;52.198;9.890;2023-04-08T03:54:09;9.73;;;6.63;;
20721;SDS011;10522;52.198;9.890;2023-04-08T03:56:35;12.60;;;7.40;;
20721;SDS011;10522;52.198;9.890;2023-04-08T03:59:01;14.37;;;7.70;;
20721;SDS011;10522;52.198;9.890;2023-04-08T04:01:26;12.03;;;7.10;;
20721;SDS011;10522;52.198;9.890;2023-04-08T04:03:52;12.93;;;6.80;;
20721;SDS011;10522;52.198;9.890;2023-04-08T04:06:18;14.77;;;8.20;;
20721;SDS011;10522;52.198;9.890;2023-04-08T04:08:44;16.10;;;8.50;;
20721;SDS011;10522;52.198;9.890;2023-04-08T04:11:10;15.37;;;8.63;;
20721;SDS011;10522;52.198;9.890;2023-04-08T04:13:36;16.70;;;8.47;;
20721;SDS011;10522;52.198;9.890;2023-04-08T04:16:01;13.50;;;8.20;;
20721;SDS011;10522;52.198;9.890;2023-04-08T04:18:27;15.97;;;8.00;;
20721;SDS011;10522;52.198;9.890;2023-04-08T04:20:52;17.27;;;8.70;;
20721;SDS011;10522;52.198;9.890;2023-04-08T04:23:18;14.50;;;8.10;;
20721;SDS011;10522;52.198;9.890;2023-04-08T04:25:44;15.23;;;8.57;;
20721;SDS011;10522;52.198;9.890;2023-04-08T04:28:09;14.83;;;8.47;;
20721;SDS011;10522;52.198;9.890;2023-04-08T04:30:36;17.03;;;9.90;;
20721;SDS011;10522;52.198;9.890;2023-04-08T04:33:02;17.37;;;8.30;;
20721;SDS011;10522;52.198;9.890;2023-04-08T04:35:28;14.63;;;9.20;;
20721;SDS011;10522;52.198;9.890;2023-04-08T04:37:54;16.93;;;9.27;;
20721;SDS011;10522;52.198;9.890;2023-04-08T04:40:19;19.97;;;9.87;;
20721;SDS011;10522;52.198;9.890;2023-04-08T04:42:45;18.17;;;10.30;;
20721;SDS011;10522;52.198;9.890;2023-04-08T04:45:11;17.87;;;9.43;;
20721;SDS011;10522;52.198;9.890;2023-04-08T04:47:36;18.73;;;9.23;;
20721;SDS011;10522;52.198;9.890;2023-04-08T04:50:02;20.57;;;10.23;;
20721;SDS011;10522;52.198;9.890;2023-04-08T04:52:28;17.07;;;9.37;;
20721;SDS011;10522;52.198;9.890;2023-04-08T04:54:53;19.27;;;10.40;;
20721;SDS011;10522;52.198;9.890;2023-04-08T04:57:20;18.77;;;9.67;;
20721;SDS011;10522;52.198;9.890;2023-04-08T04:59:46;21.37;;;10.30;;
20721;SDS011;10522;52.198;9.890;2023-04-08T05:02:12;21.27;;;10.00;;
20721;SDS011;10522;52.198;9.890;2023-04-08T05:04:37;20.20;;;10.80;;
20721;SDS011;10522;52.198;9.890;2023-04-08T05:07:03;20.63;;;10.80;;
20721;SDS011;10522;52.198;9.890;2023-04-08T05:09:29;24.03;;;11.07;;
20721;SDS011;10522;52.198;9.890;2023-04-08T05:11:55;26.13;;;10.93;;
20721;SDS011;10522;52.198;9.890;2023-04-08T05:14:21;21.73;;;11.33;;
20721;SDS011;10522;52.198;9.890;2023-04-08T05:16:46;23.33;;;11.30;;
20721;SDS011;10522;52.198;9.890;2023-04-08T05:19:12;20.93;;;10.60;;
20721;SDS011;10522;52.198;9.890;2023-04-08T05:21:38;22.40;;;10.87;;
20721;SDS011;10522;52.198;9.890;2023-04-08T05:24:03;27.17;;;11.90;;
20721;SDS011;10522;52.198;9.890;2023-04-08T05:26:29;24.70;;;11.90;;
20721;SDS011;10522;52.198;9.890;2023-04-08T05:28:55;24.93;;;12.47;;
20721;SDS011;10522;52.198;9.890;2023-04-08T05:31:20;23.27;;;12.13;;
20721;SDS011;10522;52.198;9.890;2023-04-08T05:33:46;25.33;;;12.70;;
20721;SDS011;10522;52.198;9.890;2023-04-08T05:36:12;27.23;;;13.50;;
20721;SDS011;10522;52.198;9.890;2023-04-08T05:38:38;25.93;;;13.53;;
20721;SDS011;10522;52.198;9.890;2023-04-08T05:41:06;25.37;;;12.90;;
20721;SDS011;10522;52.198;9.890;2023-04-08T05:43:32;27.93;;;12.47;;
20721;SDS011;10522;52.198;9.890;2023-04-08T05:45:58;28.63;;;13.87;;
20721;SDS011;10522;52.198;9.890;2023-04-08T05:48:23;25.57;;;14.47;;
20721;SDS011;10522;52.198;9.890;2023-04-08T05:50:49;20.70;;;11.63;;
20721;SDS011;10522;52.198;9.890;2023-04-08T05:53:15;28.57;;;13.13;;
20721;SDS011;10522;52.198;9.890;2023-04-08T05:55:40;28.03;;;13.80;;
20721;SDS011;10522;52.198;9.890;2023-04-08T05:58:06;25.43;;;13.90;;
20721;SDS011;10522;52.198;9.890;2023-04-08T06:00:32;23.00;;;12.87;;
20721;SDS011;10522;52.198;9.890;2023-04-08T06:02:57;29.47;;;13.33;;
20721;SDS011;10522;52.198;9.890;2023-04-08T06:05:23;25.10;;;13.10;;
20721;SDS011;10522;52.198;9.890;2023-04-08T06:07:49;26.03;;;13.77;;
20721;SDS011;10522;52.198;9.890;2023-04-08T06:10:14;27.50;;;14.67;;
20721;SDS011;10522;52.198;9.890;2023-04-08T06:12:40;23.67;;;13.43;;
20721;SDS011;10522;52.198;9.890;2023-04-08T06:15:06;24.03;;;13.03;;
20721;SDS011;10522;52.198;9.890;2023-04-08T06:17:34;27.60;;;13.60;;
20721;SDS011;10522;52.198;9.890;2023-04-08T06:20:01;23.70;;;13.20;;
20721;SDS011;10522;52.198;9.890;2023-04-08T06:22:27;24.57;;;12.27;;
20721;SDS011;10522;52.198;9.890;2023-04-08T06:24:53;27.77;;;13.53;;
20721;SDS011;10522;52.198;9.890;2023-04-08T06:27:19;25.50;;;13.87;;
20721;SDS011;10522;52.198;9.890;2023-04-08T06:29:45;25.77;;;13.77;;
20721;SDS011;10522;52.198;9.890;2023-04-08T06:32:11;24.47;;;13.03;;
20721;SDS011;10522;52.198;9.890;2023-04-08T06:34:37;23.57;;;12.97;;
20721;SDS011;10522;52.198;9.890;2023-04-08T06:37:02;24.47;;;13.67;;
20721;SDS011;10522;52.198;9.890;2023-04-08T06:39:28;24.53;;;13.10;;
20721;SDS011;10522;52.198;9.890;2023-04-08T06:41:54;22.93;;;12.00;;
20721;SDS011;10522;52.198;9.890;2023-04-08T06:44:20;23.33;;;12.20;;
20721;SDS011;10522;52.198;9.890;2023-04-08T06:46:45;25.90;;;13.10;;
20721;SDS011;10522;52.198;9.890;2023-04-08T06:49:11;23.17;;;13.10;;
20721;SDS011;10522;52.198;9.890;2023-04-08T06:51:37;23.67;;;12.53;;
20721;SDS011;10522;52.198;9.890;2023-04-08T06:54:02;21.50;;;11.90;;
20721;SDS011;10522;52.198;9.890;2023-04-08T06:56:28;22.50;;;13.53;;
20721;SDS011;10522;52.198;9.890;2023-04-08T06:58:54;22.73;;;12.67;;
20721;SDS011;10522;52.198;9.890;2023-04-08T07:01:19;25.40;;;13.13;;
20721;SDS011;10522;52.198;9.890;2023-04-08T07:03:45;20.70;;;12.53;;
20721;SDS011;10522;52.198;9.890;2023-04-08T07:06:10;22.00;;;11.83;;
20721;SDS011;10522;52.198;9.890;2023-04-08T07:08:36;25.37;;;12.23;;
20721;SDS011;10522;52.198;9.890;2023-04-08T07:11:02;23.03;;;11.47;;
20721;SDS011;10522;52.198;9.890;2023-04-08T07:13:28;24.30;;;12.57;;
20721;SDS011;10522;52.198;9.890;2023-04-08T07:15:54;22.37;;;11.53;;
20721;SDS011;10522;52.198;9.890;2023-04-08T07:18:20;20.07;;;11.47;;
20721;SDS011;10522;52.198;9.890;2023-04-08T07:20:52;21.37;;;12.00;;
20721;SDS011;10522;52.198;9.890;2023-04-08T07:23:19;19.30;;;12.17;;
20721;SDS011;10522;52.198;9.890;2023-04-08T07:25:45;23.00;;;11.93;;
20721;SDS011;10522;52.198;9.890;2023-04-08T07:28:11;21.17;;;12.33;;
20721;SDS011;10522;52.198;9.890;2023-04-08T07:30:37;21.37;;;11.80;;
20721;SDS011;10522;52.198;9.890;2023-04-08T07:33:04;22.10;;;12.17;;
20721;SDS011;10522;52.198;9.890;2023-04-08T07:35:30;21.77;;;12.00;;
20721;SDS011;10522;52.198;9.890;2023-04-08T07:37:56;20.53;;;11.73;;
20721;SDS011;10522;52.198;9.890;2023-04-08T07:40:24;20.20;;;10.97;;
20721;SDS011;10522;52.198;9.890;2023-04-08T07:42:50;20.93;;;12.03;;
20721;SDS011;10522;52.198;9.890;2023-04-08T07:45:17;23.03;;;11.33;;
20721;SDS011;10522;52.198;9.890;2023-04-08T07:47:43;18.93;;;11.27;;
20721;SDS011;10522;52.198;9.890;2023-04-08T07:50:15;20.97;;;11.90;;
20721;SDS011;10522;52.198;9.890;2023-04-08T07:52:41;21.93;;;12.17;;
20721;SDS011;10522;52.198;9.890;2023-04-08T07:55:08;21.27;;;12.33;;
20721;SDS011;10522;52.198;9.890;2023-04-08T07:57:37;19.83;;;12.33;;
20721;SDS011;10522;52.198;9.890;2023-04-08T08:00:03;19.83;;;12.17;;
20721;SDS011;10522;52.198;9.890;2023-04-08T08:02:28;23.00;;;12.37;;
20721;SDS011;10522;52.198;9.890;2023-04-08T08:04:54;22.70;;;11.70;;
20721;SDS011;10522;52.198;9.890;2023-04-08T08:07:20;22.80;;;11.90;;
20721;SDS011;10522;52.198;9.890;2023-04-08T08:09:45;21.33;;;11.53;;
20721;SDS011;10522;52.198;9.890;2023-04-08T08:12:11;25.80;;;12.03;;
20721;SDS011;10522;52.198;9.890;2023-04-08T08:14:38;23.63;;;12.10;;
20721;SDS011;10522;52.198;9.890;2023-04-08T08:17:04;20.40;;;11.70;;
20721;SDS011;10522;52.198;9.890;2023-04-08T08:19:30;20.73;;;11.80;;
20721;SDS011;10522;52.198;9.890;2023-04-08T08:21:55;22.30;;;11.63;;
20721;SDS011;10522;52.198;9.890;2023-04-08T08:24:21;21.10;;;12.67;;
20721;SDS011;10522;52.198;9.890;2023-04-08T08:26:47;24.20;;;13.53;;
20721;SDS011;10522;52.198;9.890;2023-04-08T08:29:13;23.00;;;13.00;;
20721;SDS011;10522;52.198;9.890;2023-04-08T08:31:38;22.30;;;12.73;;
20721;SDS011;10522;52.198;9.890;2023-04-08T08:34:04;24.73;;;14.03;;
20721;SDS011;10522;52.198;9.890;2023-04-08T08:36:30;23.03;;;13.70;;
20721;SDS011;10522;52.198;9.890;2023-04-08T08:38:55;26.37;;;13.47;;
20721;SDS011;10522;52.198;9.890;2023-04-08T08:41:21;23.50;;;14.40;;
20721;SDS011;10522;52.198;9.890;2023-04-08T08:43:47;21.57;;;13.00;;
20721;SDS011;10522;52.198;9.890;2023-04-08T08:46:14;22.70;;;13.10;;
20721;SDS011;10522;52.198;9.890;2023-04-08T08:48:42;22.57;;;12.73;;
20721;SDS011;10522;52.198;9.890;2023-04-08T08:51:11;21.03;;;12.60;;
20721;SDS011;10522;52.198;9.890;2023-04-08T08:53:37;27.63;;;14.03;;
20721;SDS011;10522;52.198;9.890;2023-04-08T08:56:05;24.33;;;13.50;;
20721;SDS011;10522;52.198;9.890;2023-04-08T08:58:33;23.87;;;12.93;;
20721;SDS011;10522;52.198;9.890;2023-04-08T09:00:59;21.67;;;12.73;;
20721;SDS011;10522;52.198;9.890;2023-04-08T09:03:25;22.03;;;13.33;;
20721;SDS011;10522;52.198;9.890;2023-04-08T09:05:56;26.00;;;13.00;;
20721;SDS011;10522;52.198;9.890;2023-04-08T09:08:30;23.47;;;13.57;;
20721;SDS011;10522;52.198;9.890;2023-04-08T09:13:47;23.17;;;13.50;;
20721;SDS011;10522;52.198;9.890;2023-04-08T09:16:14;23.83;;;13.73;;
20721;SDS011;10522;52.198;9.890;2023-04-08T09:18:42;26.17;;;14.20;;
20721;SDS011;10522;52.198;9.890;2023-04-08T09:21:10;24.90;;;13.20;;
20721;SDS011;10522;52.198;9.890;2023-04-08T09:23:44;26.27;;;14.47;;
20721;SDS011;10522;52.198;9.890;2023-04-08T09:26:18;22.43;;;12.83;;
20721;SDS011;10522;52.198;9.890;2023-04-08T09:29:07;24.93;;;13.03;;
20721;SDS011;10522;52.198;9.890;2023-04-08T09:31:34;26.33;;;13.00;;
20721;SDS011;10522;52.198;9.890;2023-04-08T09:34:10;24.00;;;13.33;;
20721;SDS011;10522;52.198;9.890;2023-04-08T09:36:38;25.57;;;13.37;;
20721;SDS011;10522;52.198;9.890;2023-04-08T09:39:04;25.10;;;14.40;;
20721;SDS011;10522;52.198;9.890;2023-04-08T09:41:32;24.63;;;14.47;;
20721;SDS011;10522;52.198;9.890;2023-04-08T09:43:58;22.90;;;13.03;;
20721;SDS011;10522;52.198;9.890;2023-04-08T09:49:12;24.70;;;15.20;;
20721;SDS011;10522;52.198;9.890;2023-04-08T09:51:49;31.10;;;13.33;;
20721;SDS011;10522;52.198;9.890;2023-04-08T09:57:30;26.57;;;14.43;;
20721;SDS011;10522;52.198;9.890;2023-04-08T10:05:30;26.30;;;14.03;;
20721;SDS011;10522;52.198;9.890;2023-04-08T10:07:57;24.93;;;13.70;;
20721;SDS011;10522;52.198;9.890;2023-04-08T10:10:23;23.27;;;13.43;;
20721;SDS011;10522;52.198;9.890;2023-04-08T10:12:51;25.03;;;13.03;;
20721;SDS011;10522;52.198;9.890;2023-04-08T10:17:50;26.40;;;14.20;;
20721;SDS011;10522;52.198;9.890;2023-04-08T10:23:04;28.67;;;13.13;;
20721;SDS011;10522;52.198;9.890;2023-04-08T10:25:35;22.77;;;13.50;;
20721;SDS011;10522;52.198;9.890;2023-04-08T10:30:46;22.53;;;12.60;;
20721;SDS011;10522;52.198;9.890;2023-04-08T10:35:55;25.93;;;13.67;;
20721;SDS011;10522;52.198;9.890;2023-04-08T10:38:34;25.47;;;13.60;;
20721;SDS011;10522;52.198;9.890;2023-04-08T10:40:59;24.43;;;12.43;;
20721;SDS011;10522;52.198;9.890;2023-04-08T10:43:30;27.03;;;13.37;;
20721;SDS011;10522;52.198;9.890;2023-04-08T10:46:00;25.90;;;12.67;;
20721;SDS011;10522;52.198;9.890;2023-04-08T10:48:26;24.43;;;13.50;;
20721;SDS011;10522;52.198;9.890;2023-04-08T10:51:02;22.00;;;12.30;;
20721;SDS011;10522;52.198;9.890;2023-04-08T10:53:33;26.00;;;14.73;;
20721;SDS011;10522;52.198;9.890;2023-04-08T10:58:48;24.57;;;14.33;;
20721;SDS011;10522;52.198;9.890;2023-04-08T11:01:15;25.37;;;14.67;;
20721;SDS011;10522;52.198;9.890;2023-04-08T11:03:41;28.10;;;14.10;;
20721;SDS011;10522;52.198;9.890;2023-04-08T11:06:06;24.97;;;14.03;;
20721;SDS011;10522;52.198;9.890;2023-04-08T11:08:32;26.00;;;14.37;;
20721;SDS011;10522;52.198;9.890;2023-04-08T11:11:02;22.30;;;13.20;;
20721;SDS011;10522;52.198;9.890;2023-04-08T11:13:32;26.47;;;13.80;;
20721;SDS011;10522;52.198;9.890;2023-04-08T11:16:00;24.60;;;14.60;;
20721;SDS011;10522;52.198;9.890;2023-04-08T11:18:26;27.47;;;14.40;;
20721;SDS011;10522;52.198;9.890;2023-04-08T11:20:52;23.67;;;14.17;;
20721;SDS011;10522;52.198;9.890;2023-04-08T11:23:18;26.13;;;14.30;;
20721;SDS011;10522;52.198;9.890;2023-04-08T11:25:45;25.37;;;13.83;;
20721;SDS011;10522;52.198;9.890;2023-04-08T11:28:11;23.33;;;13.13;;
20721;SDS011;10522;52.198;9.890;2023-04-08T11:30:38;23.27;;;13.57;;
20721;SDS011;10522;52.198;9.890;2023-04-08T11:33:05;26.77;;;13.30;;
20721;SDS011;10522;52.198;9.890;2023-04-08T11:35:32;24.73;;;13.53;;
20721;SDS011;10522;52.198;9.890;2023-04-08T11:37:58;22.30;;;13.87;;
20721;SDS011;10522;52.198;9.890;2023-04-08T11:40:24;23.57;;;13.80;;
20721;SDS011;10522;52.198;9.890;2023-04-08T11:42:50;23.60;;;14.07;;
20721;SDS011;10522;52.198;9.890;2023-04-08T11:45:17;25.43;;;13.57;;
20721;SDS011;10522;52.198;9.890;2023-04-08T11:47:45;24.47;;;12.83;;
20721;SDS011;10522;52.198;9.890;2023-04-08T11:50:12;25.17;;;14.13;;
20721;SDS011;10522;52.198;9.890;2023-04-08T11:52:50;22.47;;;13.60;;
20721;SDS011;10522;52.198;9.890;2023-04-08T11:55:25;20.37;;;12.70;;
20721;SDS011;10522;52.198;9.890;2023-04-08T11:57:52;23.47;;;12.27;;
20721;SDS011;10522;52.198;9.890;2023-04-08T12:00:19;25.80;;;13.97;;
20721;SDS011;10522;52.198;9.890;2023-04-08T12:02:45;22.93;;;12.83;;
20721;SDS011;10522;52.198;9.890;2023-04-08T12:05:11;23.53;;;13.50;;
20721;SDS011;10522;52.198;9.890;2023-04-08T12:07:38;22.50;;;13.00;;
20721;SDS011;10522;52.198;9.890;2023-04-08T12:10:04;29.43;;;13.50;;
20721;SDS011;10522;52.198;9.890;2023-04-08T12:12:30;23.93;;;13.90;;
20721;SDS011;10522;52.198;9.890;2023-04-08T12:14:56;24.07;;;13.67;;
20721;SDS011;10522;52.198;9.890;2023-04-08T12:17:21;23.53;;;12.90;;
20721;SDS011;10522;52.198;9.890;2023-04-08T12:19:47;26.00;;;14.97;;
20721;SDS011;10522;52.198;9.890;2023-04-08T12:22:13;25.03;;;13.93;;
20721;SDS011;10522;52.198;9.890;2023-04-08T12:24:38;26.57;;;14.20;;
20721;SDS011;10522;52.198;9.890;2023-04-08T12:27:04;25.17;;;13.77;;
20721;SDS011;10522;52.198;9.890;2023-04-08T12:29:31;27.53;;;14.27;;
20721;SDS011;10522;52.198;9.890;2023-04-08T12:31:57;26.23;;;14.80;;
20721;SDS011;10522;52.198;9.890;2023-04-08T12:34:23;25.63;;;14.70;;
20721;SDS011;10522;52.198;9.890;2023-04-08T12:36:49;28.67;;;16.27;;
20721;SDS011;10522;52.198;9.890;2023-04-08T12:39:14;26.03;;;14.63;;
20721;SDS011;10522;52.198;9.890;2023-04-08T12:41:40;28.53;;;15.43;;
20721;SDS011;10522;52.198;9.890;2023-04-08T12:44:06;33.00;;;14.83;;
20721;SDS011;10522;52.198;9.890;2023-04-08T12:46:32;27.57;;;15.07;;
20721;SDS011;10522;52.198;9.890;2023-04-08T12:48:57;26.87;;;14.10;;
20721;SDS011;10522;52.198;9.890;2023-04-08T12:51:23;24.03;;;14.07;;
20721;SDS011;10522;52.198;9.890;2023-04-08T12:53:50;26.33;;;13.20;;
20721;SDS011;10522;52.198;9.890;2023-04-08T12:56:16;25.30;;;14.27;;
20721;SDS011;10522;52.198;9.890;2023-04-08T12:58:41;26.07;;;13.73;;
20721;SDS011;10522;52.198;9.890;2023-04-08T13:01:07;25.67;;;13.40;;
20721;SDS011;10522;52.198;9.890;2023-04-08T13:03:32;28.47;;;14.27;;
20721;SDS011;10522;52.198;9.890;2023-04-08T13:06:00;23.07;;;12.70;;
20721;SDS011;10522;52.198;9.890;2023-04-08T13:08:25;22.07;;;12.93;;
20721;SDS011;10522;52.198;9.890;2023-04-08T13:10:51;20.30;;;12.43;;
20721;SDS011;10522;52.198;9.890;2023-04-08T13:13:18;26.03;;;13.57;;
20721;SDS011;10522;52.198;9.890;2023-04-08T13:15:44;23.90;;;13.50;;
20721;SDS011;10522;52.198;9.890;2023-04-08T13:18:09;23.10;;;13.20;;
20721;SDS011;10522;52.198;9.890;2023-04-08T13:20:35;23.23;;;12.67;;
20721;SDS011;10522;52.198;9.890;2023-04-08T13:23:00;23.87;;;12.93;;
20721;SDS011;10522;52.198;9.890;2023-04-08T13:25:26;27.30;;;13.43;;
20721;SDS011;10522;52.198;9.890;2023-04-08T13:27:52;25.40;;;12.87;;
20721;SDS011;10522;52.198;9.890;2023-04-08T13:30:17;22.23;;;12.47;;
20721;SDS011;10522;52.198;9.890;2023-04-08T13:32:43;23.67;;;11.73;;
20721;SDS011;10522;52.198;9.890;2023-04-08T13:35:09;24.83;;;13.43;;
20721;SDS011;10522;52.198;9.890;2023-04-08T13:37:35;19.23;;;11.30;;
20721;SDS011;10522;52.198;9.890;2023-04-08T13:40:01;23.63;;;12.77;;
20721;SDS011;10522;52.198;9.890;2023-04-08T13:42:27;22.80;;;13.07;;
20721;SDS011;10522;52.198;9.890;2023-04-08T13:44:55;24.03;;;12.37;;
20721;SDS011;10522;52.198;9.890;2023-04-08T13:47:21;25.70;;;12.53;;
20721;SDS011;10522;52.198;9.890;2023-04-08T13:49:47;23.90;;;13.00;;
20721;SDS011;10522;52.198;9.890;2023-04-08T14:03:23;25.33;;;14.27;;
20721;SDS011;10522;52.198;9.890;2023-04-08T14:18:20;23.40;;;14.27;;
20721;SDS011;10522;52.198;9.890;2023-04-08T14:20:46;23.40;;;13.87;;
20721;SDS011;10522;52.198;9.890;2023-04-08T14:23:12;23.83;;;13.17;;
20721;SDS011;10522;52.198;9.890;2023-04-08T14:25:38;22.77;;;12.50;;
20721;SDS011;10522;52.198;9.890;2023-04-08T14:28:03;27.90;;;13.43;;
20721;SDS011;10522;52.198;9.890;2023-04-08T14:30:29;21.80;;;13.73;;
20721;SDS011;10522;52.198;9.890;2023-04-08T14:32:57;21.60;;;12.33;;
20721;SDS011;10522;52.198;9.890;2023-04-08T14:35:24;27.97;;;14.13;;
20721;SDS011;10522;52.198;9.890;2023-04-08T14:37:50;25.87;;;14.67;;
20721;SDS011;10522;52.198;9.890;2023-04-08T14:40:15;25.30;;;13.97;;
20721;SDS011;10522;52.198;9.890;2023-04-08T14:42:41;25.30;;;13.03;;
20721;SDS011;10522;52.198;9.890;2023-04-08T14:45:09;25.27;;;13.03;;
20721;SDS011;10522;52.198;9.890;2023-04-08T14:47:35;25.93;;;13.60;;
20721;SDS011;10522;52.198;9.890;2023-04-08T14:50:00;22.63;;;13.63;;
20721;SDS011;10522;52.198;9.890;2023-04-08T14:52:26;25.67;;;14.50;;
20721;SDS011;10522;52.198;9.890;2023-04-08T14:54:52;29.90;;;14.37;;
20721;SDS011;10522;52.198;9.890;2023-04-08T14:57:17;23.53;;;13.13;;
20721;SDS011;10522;52.198;9.890;2023-04-08T14:59:44;27.27;;;13.70;;
20721;SDS011;10522;52.198;9.890;2023-04-08T15:02:09;23.20;;;13.27;;
20721;SDS011;10522;52.198;9.890;2023-04-08T15:04:36;23.87;;;13.47;;
20721;SDS011;10522;52.198;9.890;2023-04-08T15:07:03;30.57;;;14.93;;
20721;SDS011;10522;52.198;9.890;2023-04-08T15:12:47;26.97;;;14.67;;
20721;SDS011;10522;52.198;9.890;2023-04-08T15:15:13;26.97;;;14.70;;
20721;SDS011;10522;52.198;9.890;2023-04-08T15:17:39;24.33;;;13.83;;
20721;SDS011;10522;52.198;9.890;2023-04-08T15:20:05;27.13;;;16.00;;